sensor_id;sensor_type;location;lat;lon;timestamp;P1;durP1;ratioP1;P2;durP2;ratioP2
42246;SDS011;27913;42.722;23.268;2023-09-07T00:04:21;10.80;;;3.13;;
42246;SDS011;27913;42.722;23.268;2023-09-07T00:06:48;5.57;;;3.42;;
42246;SDS011;27913;42.722;23.268;2023-09-07T00:09:16;8.00;;;3.55;;
42246;SDS011;27913;42.722;23.268;2023-09-07T00:11:44;7.88;;;3.72;;
42246;SDS011;27913;42.722;23.268;2023-09-07T00:14:10;4.72;;;3.25;;
42246;SDS011;27913;42.722;23.268;2023-09-07T00:16:36;5.32;;;3.15;;
42246;SDS011;27913;42.722;23.268;2023-09-07T00:19:03;4.18;;;2.67;;
42246;SDS011;27913;42.722;23.268;2023-09-07T00:21:31;6.25;;;3.70;;
42246;SDS011;27913;42.722;23.268;2023-09-07T00:23:56;11.45;;;3.53;;
42246;SDS011;27913;42.722;23.268;2023-09-07T00:26:22;5.78;;;2.83;;
42246;SDS011;27913;42.722;23.268;2023-09-07T00:28:47;7.75;;;2.70;;
42246;SDS011;27913;42.722;23.268;2023-09-07T00:31:13;6.40;;;3.33;;
42246;SDS011;27913;42.722;23.268;2023-09-07T00:33:38;6.10;;;2.90;;
42246;SDS011;27913;42.722;23.268;2023-09-07T00:36:04;10.40;;;3.13;;
42246;SDS011;27913;42.722;23.268;2023-09-07T00:38:30;4.15;;;2.55;;
42246;SDS011;27913;42.722;23.268;2023-09-07T00:40:55;5.82;;;3.28;;
42246;SDS011;27913;42.722;23.268;2023-09-07T00:43:21;6.20;;;2.90;;
42246;SDS011;27913;42.722;23.268;2023-09-07T00:45:46;4.85;;;3.42;;
42246;SDS011;27913;42.722;23.268;2023-09-07T00:48:13;5.78;;;3.80;;
42246;SDS011;27913;42.722;23.268;2023-09-07T00:50:41;5.40;;;2.95;;
42246;SDS011;27913;42.722;23.268;2023-09-07T00:53:07;4.40;;;2.63;;
42246;SDS011;27913;42.722;23.268;2023-09-07T00:55:33;4.18;;;2.90;;
42246;SDS011;27913;42.722;23.268;2023-09-07T00:58:03;3.65;;;2.55;;
42246;SDS011;27913;42.722;23.268;2023-09-07T01:00:30;6.90;;;3.28;;
42246;SDS011;27913;42.722;23.268;2023-09-07T01:02:55;5.72;;;3.45;;
42246;SDS011;27913;42.722;23.268;2023-09-07T01:05:21;4.18;;;2.92;;
42246;SDS011;27913;42.722;23.268;2023-09-07T01:07:53;4.82;;;3.03;;
42246;SDS011;27913;42.722;23.268;2023-09-07T01:10:22;7.03;;;3.60;;
42246;SDS011;27913;42.722;23.268;2023-09-07T01:12:48;7.95;;;3.75;;
42246;SDS011;27913;42.722;23.268;2023-09-07T01:15:13;5.82;;;3.35;;
42246;SDS011;27913;42.722;23.268;2023-09-07T01:17:39;7.75;;;4.00;;
42246;SDS011;27913;42.722;23.268;2023-09-07T01:20:06;5.28;;;3.55;;
42246;SDS011;27913;42.722;23.268;2023-09-07T01:22:34;5.53;;;3.40;;
42246;SDS011;27913;42.722;23.268;2023-09-07T01:25:01;5.50;;;3.70;;
42246;SDS011;27913;42.722;23.268;2023-09-07T01:27:27;7.18;;;3.85;;
42246;SDS011;27913;42.722;23.268;2023-09-07T01:29:53;5.85;;;3.65;;
42246;SDS011;27913;42.722;23.268;2023-09-07T01:32:19;4.75;;;3.30;;
42246;SDS011;27913;42.722;23.268;2023-09-07T01:34:45;4.15;;;2.72;;
42246;SDS011;27913;42.722;23.268;2023-09-07T01:37:10;7.45;;;3.75;;
42246;SDS011;27913;42.722;23.268;2023-09-07T01:39:36;5.93;;;4.15;;
42246;SDS011;27913;42.722;23.268;2023-09-07T01:42:02;5.65;;;4.03;;
42246;SDS011;27913;42.722;23.268;2023-09-07T01:44:27;7.82;;;4.03;;
42246;SDS011;27913;42.722;23.268;2023-09-07T01:46:54;7.30;;;4.00;;
42246;SDS011;27913;42.722;23.268;2023-09-07T01:49:20;4.97;;;3.15;;
42246;SDS011;27913;42.722;23.268;2023-09-07T01:51:45;5.07;;;3.63;;
42246;SDS011;27913;42.722;23.268;2023-09-07T01:54:11;8.25;;;4.25;;
42246;SDS011;27913;42.722;23.268;2023-09-07T01:56:36;5.53;;;3.20;;
42246;SDS011;27913;42.722;23.268;2023-09-07T01:59:02;8.50;;;4.38;;
42246;SDS011;27913;42.722;23.268;2023-09-07T02:01:29;5.60;;;3.90;;
42246;SDS011;27913;42.722;23.268;2023-09-07T02:03:55;5.38;;;3.70;;
42246;SDS011;27913;42.722;23.268;2023-09-07T02:06:21;6.40;;;3.90;;
42246;SDS011;27913;42.722;23.268;2023-09-07T02:08:47;7.75;;;4.55;;
42246;SDS011;27913;42.722;23.268;2023-09-07T02:11:13;4.93;;;3.75;;
42246;SDS011;27913;42.722;23.268;2023-09-07T02:13:42;6.05;;;4.20;;
42246;SDS011;27913;42.722;23.268;2023-09-07T02:16:08;11.00;;;3.75;;
42246;SDS011;27913;42.722;23.268;2023-09-07T02:18:33;6.75;;;3.97;;
42246;SDS011;27913;42.722;23.268;2023-09-07T02:21:03;6.07;;;4.03;;
42246;SDS011;27913;42.722;23.268;2023-09-07T02:23:29;7.05;;;4.18;;
42246;SDS011;27913;42.722;23.268;2023-09-07T02:25:55;6.35;;;4.43;;
42246;SDS011;27913;42.722;23.268;2023-09-07T02:28:21;7.03;;;3.95;;
42246;SDS011;27913;42.722;23.268;2023-09-07T02:30:47;6.57;;;4.55;;
42246;SDS011;27913;42.722;23.268;2023-09-07T02:33:12;6.38;;;3.75;;
42246;SDS011;27913;42.722;23.268;2023-09-07T02:35:37;6.70;;;4.03;;
42246;SDS011;27913;42.722;23.268;2023-09-07T02:38:03;6.68;;;3.88;;
42246;SDS011;27913;42.722;23.268;2023-09-07T02:40:28;15.65;;;5.22;;
42246;SDS011;27913;42.722;23.268;2023-09-07T02:42:54;7.47;;;4.70;;
42246;SDS011;27913;42.722;23.268;2023-09-07T02:45:19;8.68;;;4.90;;
42246;SDS011;27913;42.722;23.268;2023-09-07T02:47:45;6.10;;;4.38;;
42246;SDS011;27913;42.722;23.268;2023-09-07T02:50:11;6.13;;;4.25;;
42246;SDS011;27913;42.722;23.268;2023-09-07T02:52:37;8.55;;;4.97;;
42246;SDS011;27913;42.722;23.268;2023-09-07T02:55:04;6.20;;;4.28;;
42246;SDS011;27913;42.722;23.268;2023-09-07T02:57:31;6.70;;;4.90;;
42246;SDS011;27913;42.722;23.268;2023-09-07T02:59:56;6.78;;;4.82;;
42246;SDS011;27913;42.722;23.268;2023-09-07T03:02:22;7.13;;;5.03;;
42246;SDS011;27913;42.722;23.268;2023-09-07T03:04:47;8.15;;;4.95;;
42246;SDS011;27913;42.722;23.268;2023-09-07T03:07:18;6.97;;;4.57;;
42246;SDS011;27913;42.722;23.268;2023-09-07T03:09:43;6.70;;;4.55;;
42246;SDS011;27913;42.722;23.268;2023-09-07T03:12:09;9.35;;;4.70;;
42246;SDS011;27913;42.722;23.268;2023-09-07T03:14:35;9.02;;;4.80;;
42246;SDS011;27913;42.722;23.268;2023-09-07T03:17:00;7.32;;;4.75;;
42246;SDS011;27913;42.722;23.268;2023-09-07T03:19:26;6.00;;;4.07;;
42246;SDS011;27913;42.722;23.268;2023-09-07T03:21:52;7.47;;;4.22;;
42246;SDS011;27913;42.722;23.268;2023-09-07T03:24:17;8.20;;;4.38;;
42246;SDS011;27913;42.722;23.268;2023-09-07T03:26:43;5.70;;;3.92;;
42246;SDS011;27913;42.722;23.268;2023-09-07T03:29:09;6.70;;;4.43;;
42246;SDS011;27913;42.722;23.268;2023-09-07T03:31:34;7.35;;;4.72;;
42246;SDS011;27913;42.722;23.268;2023-09-07T03:34:00;7.47;;;5.10;;
42246;SDS011;27913;42.722;23.268;2023-09-07T03:36:26;7.97;;;5.25;;
42246;SDS011;27913;42.722;23.268;2023-09-07T03:38:52;7.35;;;5.07;;
42246;SDS011;27913;42.722;23.268;2023-09-07T03:41:17;8.90;;;5.35;;
42246;SDS011;27913;42.722;23.268;2023-09-07T03:43:42;8.38;;;4.78;;
42246;SDS011;27913;42.722;23.268;2023-09-07T03:46:08;10.30;;;5.45;;
42246;SDS011;27913;42.722;23.268;2023-09-07T03:48:33;9.25;;;5.72;;
42246;SDS011;27913;42.722;23.268;2023-09-07T03:50:59;8.70;;;4.82;;
42246;SDS011;27913;42.722;23.268;2023-09-07T03:53:24;6.15;;;4.35;;
42246;SDS011;27913;42.722;23.268;2023-09-07T03:55:50;21.10;;;4.88;;
42246;SDS011;27913;42.722;23.268;2023-09-07T03:58:16;7.60;;;5.00;;
42246;SDS011;27913;42.722;23.268;2023-09-07T04:00:41;10.65;;;5.68;;
42246;SDS011;27913;42.722;23.268;2023-09-07T04:03:07;6.90;;;4.82;;
42246;SDS011;27913;42.722;23.268;2023-09-07T04:05:33;8.20;;;4.88;;
42246;SDS011;27913;42.722;23.268;2023-09-07T04:07:59;6.78;;;5.05;;
42246;SDS011;27913;42.722;23.268;2023-09-07T04:10:25;5.68;;;4.13;;
42246;SDS011;27913;42.722;23.268;2023-09-07T04:12:51;8.75;;;5.35;;
42246;SDS011;27913;42.722;23.268;2023-09-07T04:15:18;8.85;;;5.40;;
42246;SDS011;27913;42.722;23.268;2023-09-07T04:17:43;7.78;;;4.90;;
42246;SDS011;27913;42.722;23.268;2023-09-07T04:20:09;7.88;;;4.78;;
42246;SDS011;27913;42.722;23.268;2023-09-07T04:22:38;7.05;;;4.82;;
42246;SDS011;27913;42.722;23.268;2023-09-07T04:25:05;6.50;;;4.65;;
42246;SDS011;27913;42.722;23.268;2023-09-07T04:27:31;10.68;;;5.60;;
42246;SDS011;27913;42.722;23.268;2023-09-07T04:29:56;7.65;;;5.20;;
42246;SDS011;27913;42.722;23.268;2023-09-07T04:32:22;11.02;;;5.72;;
42246;SDS011;27913;42.722;23.268;2023-09-07T04:34:47;7.50;;;5.18;;
42246;SDS011;27913;42.722;23.268;2023-09-07T04:37:18;8.75;;;4.50;;
42246;SDS011;27913;42.722;23.268;2023-09-07T04:39:43;7.85;;;4.68;;
42246;SDS011;27913;42.722;23.268;2023-09-07T04:42:09;6.85;;;5.07;;
42246;SDS011;27913;42.722;23.268;2023-09-07T04:44:34;6.97;;;4.63;;
42246;SDS011;27913;42.722;23.268;2023-09-07T04:47:00;10.70;;;6.13;;
42246;SDS011;27913;42.722;23.268;2023-09-07T04:49:25;7.90;;;5.28;;
42246;SDS011;27913;42.722;23.268;2023-09-07T04:51:54;7.60;;;5.38;;
42246;SDS011;27913;42.722;23.268;2023-09-07T04:54:20;9.30;;;5.10;;
42246;SDS011;27913;42.722;23.268;2023-09-07T04:56:45;7.47;;;5.28;;
42246;SDS011;27913;42.722;23.268;2023-09-07T04:59:10;20.73;;;5.93;;
42246;SDS011;27913;42.722;23.268;2023-09-07T05:01:36;7.43;;;4.78;;
42246;SDS011;27913;42.722;23.268;2023-09-07T05:04:01;11.10;;;5.65;;
42246;SDS011;27913;42.722;23.268;2023-09-07T05:06:28;8.70;;;5.75;;
42246;SDS011;27913;42.722;23.268;2023-09-07T05:08:59;8.52;;;5.40;;
42246;SDS011;27913;42.722;23.268;2023-09-07T05:11:24;7.03;;;4.95;;
42246;SDS011;27913;42.722;23.268;2023-09-07T05:13:50;9.32;;;5.70;;
42246;SDS011;27913;42.722;23.268;2023-09-07T05:16:15;8.93;;;6.07;;
42246;SDS011;27913;42.722;23.268;2023-09-07T05:18:41;11.43;;;6.40;;
42246;SDS011;27913;42.722;23.268;2023-09-07T05:21:11;15.60;;;5.32;;
42246;SDS011;27913;42.722;23.268;2023-09-07T05:23:40;7.47;;;5.20;;
42246;SDS011;27913;42.722;23.268;2023-09-07T05:26:06;13.20;;;5.68;;
42246;SDS011;27913;42.722;23.268;2023-09-07T05:28:31;10.30;;;6.15;;
42246;SDS011;27913;42.722;23.268;2023-09-07T05:30:57;7.13;;;5.03;;
42246;SDS011;27913;42.722;23.268;2023-09-07T05:33:22;10.32;;;6.30;;
42246;SDS011;27913;42.722;23.268;2023-09-07T05:35:48;9.98;;;6.25;;
42246;SDS011;27913;42.722;23.268;2023-09-07T05:38:13;7.43;;;5.53;;
42246;SDS011;27913;42.722;23.268;2023-09-07T05:40:40;8.98;;;5.70;;
42246;SDS011;27913;42.722;23.268;2023-09-07T05:43:06;9.13;;;5.97;;
42246;SDS011;27913;42.722;23.268;2023-09-07T05:45:36;8.07;;;6.10;;
42246;SDS011;27913;42.722;23.268;2023-09-07T05:48:06;8.98;;;6.45;;
42246;SDS011;27913;42.722;23.268;2023-09-07T05:50:36;8.73;;;5.70;;
42246;SDS011;27913;42.722;23.268;2023-09-07T05:53:03;11.55;;;6.25;;
42246;SDS011;27913;42.722;23.268;2023-09-07T05:55:29;8.55;;;5.90;;
42246;SDS011;27913;42.722;23.268;2023-09-07T05:57:55;8.93;;;6.13;;
42246;SDS011;27913;42.722;23.268;2023-09-07T06:00:21;18.55;;;5.93;;
42246;SDS011;27913;42.722;23.268;2023-09-07T06:02:47;8.60;;;5.22;;
42246;SDS011;27913;42.722;23.268;2023-09-07T06:05:13;9.27;;;5.07;;
42246;SDS011;27913;42.722;23.268;2023-09-07T06:07:38;7.20;;;4.35;;
42246;SDS011;27913;42.722;23.268;2023-09-07T06:10:04;5.45;;;3.60;;
42246;SDS011;27913;42.722;23.268;2023-09-07T06:12:30;7.30;;;4.47;;
42246;SDS011;27913;42.722;23.268;2023-09-07T06:14:57;6.15;;;3.85;;
42246;SDS011;27913;42.722;23.268;2023-09-07T06:17:22;7.20;;;4.68;;
42246;SDS011;27913;42.722;23.268;2023-09-07T06:19:47;7.20;;;3.95;;
42246;SDS011;27913;42.722;23.268;2023-09-07T06:22:13;8.10;;;3.88;;
42246;SDS011;27913;42.722;23.268;2023-09-07T06:24:38;5.00;;;3.45;;
42246;SDS011;27913;42.722;23.268;2023-09-07T06:27:04;5.95;;;3.78;;
42246;SDS011;27913;42.722;23.268;2023-09-07T06:29:29;4.75;;;3.30;;
42246;SDS011;27913;42.722;23.268;2023-09-07T06:31:55;13.13;;;5.00;;
42246;SDS011;27913;42.722;23.268;2023-09-07T06:34:20;6.53;;;3.75;;
42246;SDS011;27913;42.722;23.268;2023-09-07T06:36:46;7.80;;;4.53;;
42246;SDS011;27913;42.722;23.268;2023-09-07T06:39:11;8.48;;;3.97;;
42246;SDS011;27913;42.722;23.268;2023-09-07T06:41:36;5.82;;;4.43;;
42246;SDS011;27913;42.722;23.268;2023-09-07T06:44:02;5.93;;;3.67;;
42246;SDS011;27913;42.722;23.268;2023-09-07T06:46:27;7.90;;;4.18;;
42246;SDS011;27913;42.722;23.268;2023-09-07T06:48:53;6.35;;;3.83;;
42246;SDS011;27913;42.722;23.268;2023-09-07T06:51:18;7.22;;;4.15;;
42246;SDS011;27913;42.722;23.268;2023-09-07T06:53:44;5.55;;;3.78;;
42246;SDS011;27913;42.722;23.268;2023-09-07T06:56:09;6.93;;;4.32;;
42246;SDS011;27913;42.722;23.268;2023-09-07T06:58:35;7.40;;;3.42;;
42246;SDS011;27913;42.722;23.268;2023-09-07T07:01:01;5.43;;;3.65;;
42246;SDS011;27913;42.722;23.268;2023-09-07T07:03:27;5.22;;;3.13;;
42246;SDS011;27913;42.722;23.268;2023-09-07T07:05:56;5.22;;;3.38;;
42246;SDS011;27913;42.722;23.268;2023-09-07T07:08:22;6.43;;;2.88;;
42246;SDS011;27913;42.722;23.268;2023-09-07T07:10:48;5.05;;;2.97;;
42246;SDS011;27913;42.722;23.268;2023-09-07T07:13:14;4.65;;;2.97;;
42246;SDS011;27913;42.722;23.268;2023-09-07T07:15:40;5.97;;;3.85;;
42246;SDS011;27913;42.722;23.268;2023-09-07T07:18:06;5.50;;;3.50;;
42246;SDS011;27913;42.722;23.268;2023-09-07T07:20:34;6.72;;;3.55;;
42246;SDS011;27913;42.722;23.268;2023-09-07T07:23:04;6.07;;;3.60;;
42246;SDS011;27913;42.722;23.268;2023-09-07T07:25:31;7.38;;;3.80;;
42246;SDS011;27913;42.722;23.268;2023-09-07T07:27:58;5.45;;;3.50;;
42246;SDS011;27913;42.722;23.268;2023-09-07T07:30:26;5.70;;;3.97;;
42246;SDS011;27913;42.722;23.268;2023-09-07T07:32:54;7.03;;;3.90;;
42246;SDS011;27913;42.722;23.268;2023-09-07T07:35:22;6.85;;;3.42;;
42246;SDS011;27913;42.722;23.268;2023-09-07T07:37:49;4.78;;;3.45;;
42246;SDS011;27913;42.722;23.268;2023-09-07T07:40:15;6.95;;;3.65;;
42246;SDS011;27913;42.722;23.268;2023-09-07T07:42:41;5.95;;;3.75;;
42246;SDS011;27913;42.722;23.268;2023-09-07T07:45:07;11.45;;;3.58;;
42246;SDS011;27913;42.722;23.268;2023-09-07T07:47:33;5.40;;;3.30;;
42246;SDS011;27913;42.722;23.268;2023-09-07T07:49:58;3.95;;;2.72;;
42246;SDS011;27913;42.722;23.268;2023-09-07T07:52:24;5.25;;;3.05;;
42246;SDS011;27913;42.722;23.268;2023-09-07T07:54:49;5.93;;;2.92;;
42246;SDS011;27913;42.722;23.268;2023-09-07T07:57:15;6.28;;;3.60;;
42246;SDS011;27913;42.722;23.268;2023-09-07T07:59:40;5.65;;;3.22;;
42246;SDS011;27913;42.722;23.268;2023-09-07T08:02:05;3.72;;;2.35;;
42246;SDS011;27913;42.722;23.268;2023-09-07T08:04:31;3.70;;;2.45;;
42246;SDS011;27913;42.722;23.268;2023-09-07T08:06:58;5.93;;;3.17;;
42246;SDS011;27913;42.722;23.268;2023-09-07T08:09:29;5.45;;;2.63;;
42246;SDS011;27913;42.722;23.268;2023-09-07T08:11:54;4.90;;;2.60;;
42246;SDS011;27913;42.722;23.268;2023-09-07T08:14:21;5.55;;;2.97;;
42246;SDS011;27913;42.722;23.268;2023-09-07T08:16:47;8.73;;;2.95;;
42246;SDS011;27913;42.722;23.268;2023-09-07T08:19:13;5.28;;;2.67;;
42246;SDS011;27913;42.722;23.268;2023-09-07T08:21:39;5.85;;;2.63;;
42246;SDS011;27913;42.722;23.268;2023-09-07T08:24:07;4.25;;;2.47;;
42246;SDS011;27913;42.722;23.268;2023-09-07T08:26:33;6.78;;;2.88;;
42246;SDS011;27913;42.722;23.268;2023-09-07T08:28:58;7.57;;;3.08;;
42246;SDS011;27913;42.722;23.268;2023-09-07T08:31:24;3.72;;;2.40;;
42246;SDS011;27913;42.722;23.268;2023-09-07T08:33:49;5.82;;;2.63;;
42246;SDS011;27913;42.722;23.268;2023-09-07T08:36:20;4.10;;;2.45;;
42246;SDS011;27913;42.722;23.268;2023-09-07T08:38:47;6.07;;;2.55;;
42246;SDS011;27913;42.722;23.268;2023-09-07T08:41:13;6.05;;;2.50;;
42246;SDS011;27913;42.722;23.268;2023-09-07T08:43:42;4.05;;;2.08;;
42246;SDS011;27913;42.722;23.268;2023-09-07T08:46:19;4.78;;;2.60;;
42246;SDS011;27913;42.722;23.268;2023-09-07T08:48:46;2.50;;;1.92;;
42246;SDS011;27913;42.722;23.268;2023-09-07T08:51:14;3.50;;;2.22;;
42246;SDS011;27913;42.722;23.268;2023-09-07T08:53:41;6.05;;;2.88;;
42246;SDS011;27913;42.722;23.268;2023-09-07T08:56:11;4.97;;;2.53;;
42246;SDS011;27913;42.722;23.268;2023-09-07T08:58:41;4.97;;;2.67;;
42246;SDS011;27913;42.722;23.268;2023-09-07T09:01:06;7.00;;;2.58;;
42246;SDS011;27913;42.722;23.268;2023-09-07T09:03:34;5.93;;;2.42;;
42246;SDS011;27913;42.722;23.268;2023-09-07T09:06:00;3.25;;;2.03;;
42246;SDS011;27913;42.722;23.268;2023-09-07T09:08:26;4.80;;;2.40;;
42246;SDS011;27913;42.722;23.268;2023-09-07T09:11:01;2.95;;;1.95;;
42246;SDS011;27913;42.722;23.268;2023-09-07T09:13:30;3.67;;;1.80;;
42246;SDS011;27913;42.722;23.268;2023-09-07T09:15:58;5.25;;;2.55;;
42246;SDS011;27913;42.722;23.268;2023-09-07T09:18:26;3.17;;;2.05;;
42246;SDS011;27913;42.722;23.268;2023-09-07T09:20:52;4.75;;;2.60;;
42246;SDS011;27913;42.722;23.268;2023-09-07T09:23:18;3.45;;;2.22;;
42246;SDS011;27913;42.722;23.268;2023-09-07T09:25:43;4.82;;;2.40;;
42246;SDS011;27913;42.722;23.268;2023-09-07T09:28:09;3.70;;;2.55;;
42246;SDS011;27913;42.722;23.268;2023-09-07T09:30:35;19.85;;;3.03;;
42246;SDS011;27913;42.722;23.268;2023-09-07T09:33:02;3.35;;;2.10;;
42246;SDS011;27913;42.722;23.268;2023-09-07T09:35:30;4.97;;;2.38;;
42246;SDS011;27913;42.722;23.268;2023-09-07T09:38:00;3.78;;;2.00;;
42246;SDS011;27913;42.722;23.268;2023-09-07T09:40:29;5.00;;;2.35;;
42246;SDS011;27913;42.722;23.268;2023-09-07T09:42:56;4.13;;;2.20;;
42246;SDS011;27913;42.722;23.268;2023-09-07T09:45:22;3.10;;;1.88;;
42246;SDS011;27913;42.722;23.268;2023-09-07T09:47:51;3.70;;;1.90;;
42246;SDS011;27913;42.722;23.268;2023-09-07T09:50:19;3.65;;;2.17;;
42246;SDS011;27913;42.722;23.268;2023-09-07T09:52:45;3.53;;;2.03;;
42246;SDS011;27913;42.722;23.268;2023-09-07T09:55:12;5.68;;;2.47;;
42246;SDS011;27913;42.722;23.268;2023-09-07T09:57:38;2.80;;;1.52;;
42246;SDS011;27913;42.722;23.268;2023-09-07T10:00:04;2.75;;;1.50;;
42246;SDS011;27913;42.722;23.268;2023-09-07T10:02:55;7.25;;;2.33;;
42246;SDS011;27913;42.722;23.268;2023-09-07T10:05:25;7.25;;;2.20;;
42246;SDS011;27913;42.722;23.268;2023-09-07T10:07:52;4.47;;;1.85;;
42246;SDS011;27913;42.722;23.268;2023-09-07T10:10:18;3.83;;;2.20;;
42246;SDS011;27913;42.722;23.268;2023-09-07T10:12:51;5.63;;;3.00;;
42246;SDS011;27913;42.722;23.268;2023-09-07T10:15:24;2.95;;;2.00;;
42246;SDS011;27913;42.722;23.268;2023-09-07T10:17:50;4.35;;;2.63;;
42246;SDS011;27913;42.722;23.268;2023-09-07T10:20:48;6.07;;;2.17;;
42246;SDS011;27913;42.722;23.268;2023-09-07T10:23:19;4.57;;;2.75;;
42246;SDS011;27913;42.722;23.268;2023-09-07T10:25:48;4.68;;;2.17;;
42246;SDS011;27913;42.722;23.268;2023-09-07T10:28:18;3.87;;;2.07;;
42246;SDS011;27913;42.722;23.268;2023-09-07T10:31:24;5.32;;;2.63;;
42246;SDS011;27913;42.722;23.268;2023-09-07T10:33:43;3.25;;;1.77;;
42246;SDS011;27913;42.722;23.268;2023-09-07T10:36:23;7.10;;;1.70;;
42246;SDS011;27913;42.722;23.268;2023-09-07T10:38:50;3.53;;;1.90;;
42246;SDS011;27913;42.722;23.268;2023-09-07T10:41:18;3.15;;;1.42;;
42246;SDS011;27913;42.722;23.268;2023-09-07T10:43:47;3.85;;;2.17;;
42246;SDS011;27913;42.722;23.268;2023-09-07T10:46:20;3.63;;;1.90;;
42246;SDS011;27913;42.722;23.268;2023-09-07T10:48:50;4.00;;;1.73;;
42246;SDS011;27913;42.722;23.268;2023-09-07T10:51:17;2.45;;;1.58;;
42246;SDS011;27913;42.722;23.268;2023-09-07T10:53:45;5.70;;;2.35;;
42246;SDS011;27913;42.722;23.268;2023-09-07T10:56:11;3.42;;;2.17;;
42246;SDS011;27913;42.722;23.268;2023-09-07T10:58:37;4.10;;;2.10;;
42246;SDS011;27913;42.722;23.268;2023-09-07T11:01:07;3.90;;;2.30;;
42246;SDS011;27913;42.722;23.268;2023-09-07T11:03:34;3.47;;;1.55;;
42246;SDS011;27913;42.722;23.268;2023-09-07T11:06:08;3.20;;;1.98;;
42246;SDS011;27913;42.722;23.268;2023-09-07T11:08:37;2.25;;;1.60;;
42246;SDS011;27913;42.722;23.268;2023-09-07T11:11:02;4.32;;;2.15;;
42246;SDS011;27913;42.722;23.268;2023-09-07T11:13:28;4.40;;;2.15;;
42246;SDS011;27913;42.722;23.268;2023-09-07T11:15:55;5.10;;;1.98;;
42246;SDS011;27913;42.722;23.268;2023-09-07T11:18:21;4.22;;;2.30;;
42246;SDS011;27913;42.722;23.268;2023-09-07T11:20:48;2.58;;;1.73;;
42246;SDS011;27913;42.722;23.268;2023-09-07T11:23:14;3.83;;;2.15;;
42246;SDS011;27913;42.722;23.268;2023-09-07T11:25:41;10.60;;;2.50;;
42246;SDS011;27913;42.722;23.268;2023-09-07T11:28:08;3.75;;;2.05;;
42246;SDS011;27913;42.722;23.268;2023-09-07T11:30:35;2.97;;;1.77;;
42246;SDS011;27913;42.722;23.268;2023-09-07T11:33:04;3.58;;;1.88;;
42246;SDS011;27913;42.722;23.268;2023-09-07T11:35:31;3.15;;;1.90;;
42246;SDS011;27913;42.722;23.268;2023-09-07T11:38:01;2.97;;;1.75;;
42246;SDS011;27913;42.722;23.268;2023-09-07T11:42:54;2.17;;;1.65;;
42246;SDS011;27913;42.722;23.268;2023-09-07T11:45:19;5.55;;;1.77;;
42246;SDS011;27913;42.722;23.268;2023-09-07T11:47:45;3.90;;;2.22;;
42246;SDS011;27913;42.722;23.268;2023-09-07T11:50:11;3.58;;;1.60;;
42246;SDS011;27913;42.722;23.268;2023-09-07T11:52:36;6.40;;;2.63;;
42246;SDS011;27913;42.722;23.268;2023-09-07T11:55:02;2.83;;;1.83;;
42246;SDS011;27913;42.722;23.268;2023-09-07T11:57:28;4.22;;;2.42;;
42246;SDS011;27913;42.722;23.268;2023-09-07T11:59:54;2.35;;;1.50;;
42246;SDS011;27913;42.722;23.268;2023-09-07T12:02:20;2.58;;;1.65;;
42246;SDS011;27913;42.722;23.268;2023-09-07T12:04:46;3.70;;;2.22;;
42246;SDS011;27913;42.722;23.268;2023-09-07T12:07:12;11.90;;;1.75;;
42246;SDS011;27913;42.722;23.268;2023-09-07T12:09:38;5.00;;;2.20;;
42246;SDS011;27913;42.722;23.268;2023-09-07T12:12:04;3.83;;;2.05;;
42246;SDS011;27913;42.722;23.268;2023-09-07T12:14:29;3.30;;;1.92;;
42246;SDS011;27913;42.722;23.268;2023-09-07T12:16:56;3.25;;;2.15;;
42246;SDS011;27913;42.722;23.268;2023-09-07T12:19:22;4.32;;;2.13;;
42246;SDS011;27913;42.722;23.268;2023-09-07T12:21:47;4.10;;;1.73;;
42246;SDS011;27913;42.722;23.268;2023-09-07T12:24:13;3.45;;;1.95;;
42246;SDS011;27913;42.722;23.268;2023-09-07T12:26:38;2.78;;;1.58;;
42246;SDS011;27913;42.722;23.268;2023-09-07T12:29:04;2.33;;;1.65;;
42246;SDS011;27913;42.722;23.268;2023-09-07T12:31:30;3.92;;;1.85;;
42246;SDS011;27913;42.722;23.268;2023-09-07T12:33:56;3.38;;;1.77;;
42246;SDS011;27913;42.722;23.268;2023-09-07T12:36:22;2.90;;;1.60;;
42246;SDS011;27913;42.722;23.268;2023-09-07T12:38:47;4.13;;;1.75;;
42246;SDS011;27913;42.722;23.268;2023-09-07T12:41:13;2.45;;;1.50;;
42246;SDS011;27913;42.722;23.268;2023-09-07T12:43:40;3.55;;;2.10;;
42246;SDS011;27913;42.722;23.268;2023-09-07T12:46:05;5.40;;;2.88;;
42246;SDS011;27913;42.722;23.268;2023-09-07T12:48:31;3.50;;;1.85;;
42246;SDS011;27913;42.722;23.268;2023-09-07T12:50:56;4.07;;;1.98;;
42246;SDS011;27913;42.722;23.268;2023-09-07T12:53:22;3.35;;;1.92;;
42246;SDS011;27913;42.722;23.268;2023-09-07T12:55:51;4.18;;;2.10;;
42246;SDS011;27913;42.722;23.268;2023-09-07T12:58:19;3.03;;;1.80;;
42246;SDS011;27913;42.722;23.268;2023-09-07T13:00:45;3.50;;;2.03;;
42246;SDS011;27913;42.722;23.268;2023-09-07T13:03:13;2.63;;;1.63;;
42246;SDS011;27913;42.722;23.268;2023-09-07T13:05:39;3.30;;;1.92;;
42246;SDS011;27913;42.722;23.268;2023-09-07T13:08:04;2.70;;;1.67;;
42246;SDS011;27913;42.722;23.268;2023-09-07T13:10:31;1.83;;;1.38;;
42246;SDS011;27913;42.722;23.268;2023-09-07T13:12:57;4.28;;;2.15;;
42246;SDS011;27913;42.722;23.268;2023-09-07T13:15:23;9.30;;;2.63;;
42246;SDS011;27913;42.722;23.268;2023-09-07T13:17:48;4.82;;;1.92;;
42246;SDS011;27913;42.722;23.268;2023-09-07T13:20:14;3.05;;;1.70;;
42246;SDS011;27913;42.722;23.268;2023-09-07T13:22:41;4.32;;;2.13;;
42246;SDS011;27913;42.722;23.268;2023-09-07T13:25:07;5.28;;;1.90;;
42246;SDS011;27913;42.722;23.268;2023-09-07T13:27:32;4.15;;;2.03;;
42246;SDS011;27913;42.722;23.268;2023-09-07T13:29:58;3.40;;;1.92;;
42246;SDS011;27913;42.722;23.268;2023-09-07T13:32:23;2.67;;;1.42;;
42246;SDS011;27913;42.722;23.268;2023-09-07T13:34:50;5.35;;;2.30;;
42246;SDS011;27913;42.722;23.268;2023-09-07T13:37:15;3.05;;;1.80;;
42246;SDS011;27913;42.722;23.268;2023-09-07T13:39:40;3.42;;;2.05;;
42246;SDS011;27913;42.722;23.268;2023-09-07T13:42:06;2.65;;;1.70;;
42246;SDS011;27913;42.722;23.268;2023-09-07T13:44:32;4.00;;;1.98;;
42246;SDS011;27913;42.722;23.268;2023-09-07T13:46:57;4.45;;;1.80;;
42246;SDS011;27913;42.722;23.268;2023-09-07T13:49:22;3.38;;;1.92;;
42246;SDS011;27913;42.722;23.268;2023-09-07T13:51:48;2.65;;;1.60;;
42246;SDS011;27913;42.722;23.268;2023-09-07T13:54:14;4.15;;;2.13;;
42246;SDS011;27913;42.722;23.268;2023-09-07T13:56:39;3.38;;;2.00;;
42246;SDS011;27913;42.722;23.268;2023-09-07T13:59:07;3.30;;;1.92;;
42246;SDS011;27913;42.722;23.268;2023-09-07T14:01:32;17.67;;;9.82;;
42246;SDS011;27913;42.722;23.268;2023-09-07T14:03:58;15.90;;;8.80;;
42246;SDS011;27913;42.722;23.268;2023-09-07T14:06:24;4.10;;;2.03;;
42246;SDS011;27913;42.722;23.268;2023-09-07T14:08:49;3.17;;;1.90;;
42246;SDS011;27913;42.722;23.268;2023-09-07T14:11:16;4.38;;;2.20;;
42246;SDS011;27913;42.722;23.268;2023-09-07T14:13:42;5.32;;;2.00;;
42246;SDS011;27913;42.722;23.268;2023-09-07T14:16:07;3.00;;;1.77;;
42246;SDS011;27913;42.722;23.268;2023-09-07T14:18:35;3.15;;;1.92;;
42246;SDS011;27913;42.722;23.268;2023-09-07T14:21:01;3.42;;;2.05;;
42246;SDS011;27913;42.722;23.268;2023-09-07T14:23:27;4.18;;;1.95;;
42246;SDS011;27913;42.722;23.268;2023-09-07T14:25:53;3.65;;;1.85;;
42246;SDS011;27913;42.722;23.268;2023-09-07T14:28:19;3.60;;;2.28;;
42246;SDS011;27913;42.722;23.268;2023-09-07T14:30:44;3.25;;;1.77;;
42246;SDS011;27913;42.722;23.268;2023-09-07T14:33:09;6.80;;;2.00;;
42246;SDS011;27913;42.722;23.268;2023-09-07T14:35:35;11.00;;;2.40;;